sensor_id;sensor_type;location;lat;lon;timestamp;pressure;altitude;pressure_sealevel;temperature;humidity
72640;BME280;60683;51.730;8.762;2023-10-09T00:02:15;100794.16;;;11.25;100.00
72640;BME280;60683;51.730;8.762;2023-10-09T00:04:42;100787.56;;;11.21;100.00
72640;BME280;60683;51.730;8.762;2023-10-09T00:07:11;100791.34;;;11.13;100.00
72640;BME280;60683;51.730;8.762;2023-10-09T00:09:38;100789.72;;;11.12;100.00
72640;BME280;60683;51.730;8.762;2023-10-09T00:12:16;100781.91;;;11.04;100.00
72640;BME280;60683;51.730;8.762;2023-10-09T00:14:48;100779.06;;;10.99;100.00
72640;BME280;60683;51.730;8.762;2023-10-09T00:17:17;100784.38;;;11.06;100.00
72640;BME280;60683;51.730;8.762;2023-10-09T00:19:45;100780.66;;;11.07;100.00
72640;BME280;60683;51.730;8.762;2023-10-09T00:22:14;100779.28;;;10.98;100.00
72640;BME280;60683;51.730;8.762;2023-10-09T00:24:52;100777.03;;;10.94;100.00
72640;BME280;60683;51.730;8.762;2023-10-09T00:27:37;100758.41;;;10.93;100.00
72640;BME280;60683;51.730;8.762;2023-10-09T00:30:09;100760.06;;;10.94;100.00
72640;BME280;60683;51.730;8.762;2023-10-09T00:32:41;100756.56;;;10.93;100.00
72640;BME280;60683;51.730;8.762;2023-10-09T00:35:11;100743.09;;;10.93;100.00
72640;BME280;60683;51.730;8.762;2023-10-09T00:37:51;100732.94;;;10.95;100.00
72640;BME280;60683;51.730;8.762;2023-10-09T00:40:30;100737.06;;;10.98;100.00
72640;BME280;60683;51.730;8.762;2023-10-09T00:42:59;100736.69;;;10.94;100.00
72640;BME280;60683;51.730;8.762;2023-10-09T00:45:28;100737.28;;;10.97;100.00
72640;BME280;60683;51.730;8.762;2023-10-09T00:47:59;100730.19;;;11.02;100.00
72640;BME280;60683;51.730;8.762;2023-10-09T00:50:29;100725.41;;;11.04;100.00
72640;BME280;60683;51.730;8.762;2023-10-09T00:53:01;100730.41;;;11.01;100.00
72640;BME280;60683;51.730;8.762;2023-10-09T00:55:31;100734.59;;;10.97;100.00
72640;BME280;60683;51.730;8.762;2023-10-09T00:58:05;100746.16;;;10.97;100.00
72640;BME280;60683;51.730;8.762;2023-10-09T01:00:38;100735.84;;;10.94;100.00
72640;BME280;60683;51.730;8.762;2023-10-09T01:03:15;100728.47;;;10.89;100.00
72640;BME280;60683;51.730;8.762;2023-10-09T01:05:54;100708.00;;;10.88;100.00
72640;BME280;60683;51.730;8.762;2023-10-09T01:08:24;100721.34;;;10.95;100.00
72640;BME280;60683;51.730;8.762;2023-10-09T01:10:55;100717.03;;;10.94;100.00
72640;BME280;60683;51.730;8.762;2023-10-09T01:13:23;100709.34;;;10.98;100.00
72640;BME280;60683;51.730;8.762;2023-10-09T01:16:06;100705.97;;;11.02;100.00
72640;BME280;60683;51.730;8.762;2023-10-09T01:18:39;100713.06;;;10.97;100.00
72640;BME280;60683;51.730;8.762;2023-10-09T01:21:06;100700.97;;;10.87;100.00
72640;BME280;60683;51.730;8.762;2023-10-09T01:23:34;100690.00;;;10.89;100.00
72640;BME280;60683;51.730;8.762;2023-10-09T01:26:24;100671.84;;;10.84;100.00
72640;BME280;60683;51.730;8.762;2023-10-09T01:28:51;100664.19;;;10.81;100.00
72640;BME280;60683;51.730;8.762;2023-10-09T01:31:23;100678.09;;;10.78;100.00
72640;BME280;60683;51.730;8.762;2023-10-09T01:33:51;100684.13;;;10.74;100.00
72640;BME280;60683;51.730;8.762;2023-10-09T01:36:19;100679.53;;;10.81;100.00
72640;BME280;60683;51.730;8.762;2023-10-09T01:38:59;100683.56;;;10.90;100.00
72640;BME280;60683;51.730;8.762;2023-10-09T01:41:26;100683.78;;;11.07;100.00
72640;BME280;60683;51.730;8.762;2023-10-09T01:43:53;100703.81;;;11.11;100.00
72640;BME280;60683;51.730;8.762;2023-10-09T01:46:26;100708.03;;;11.25;100.00
72640;BME280;60683;51.730;8.762;2023-10-09T01:48:53;100705.25;;;11.50;100.00
72640;BME280;60683;51.730;8.762;2023-10-09T01:51:20;100702.06;;;11.41;100.00
72640;BME280;60683;51.730;8.762;2023-10-09T01:53:47;100698.53;;;11.41;100.00
72640;BME280;60683;51.730;8.762;2023-10-09T01:56:21;100701.56;;;11.44;100.00
72640;BME280;60683;51.730;8.762;2023-10-09T01:58:48;100700.38;;;11.58;100.00
72640;BME280;60683;51.730;8.762;2023-10-09T02:01:16;100700.06;;;11.67;100.00
72640;BME280;60683;51.730;8.762;2023-10-09T02:03:42;100703.59;;;11.67;100.00
72640;BME280;60683;51.730;8.762;2023-10-09T02:06:10;100700.81;;;11.74;100.00
72640;BME280;60683;51.730;8.762;2023-10-09T02:08:55;100708.16;;;11.85;100.00
72640;BME280;60683;51.730;8.762;2023-10-09T02:11:23;100697.63;;;11.83;100.00
72640;BME280;60683;51.730;8.762;2023-10-09T02:14:07;100687.78;;;11.89;100.00
72640;BME280;60683;51.730;8.762;2023-10-09T02:16:46;100688.97;;;11.93;100.00
72640;BME280;60683;51.730;8.762;2023-10-09T02:19:29;100687.50;;;12.09;100.00
72640;BME280;60683;51.730;8.762;2023-10-09T02:22:00;100684.28;;;12.30;100.00
72640;BME280;60683;51.730;8.762;2023-10-09T02:24:37;100689.91;;;12.29;100.00
72640;BME280;60683;51.730;8.762;2023-10-09T02:27:25;100683.25;;;12.66;100.00
72640;BME280;60683;51.730;8.762;2023-10-09T02:30:12;100680.22;;;12.74;100.00
72640;BME280;60683;51.730;8.762;2023-10-09T02:32:45;100687.84;;;12.77;100.00
72640;BME280;60683;51.730;8.762;2023-10-09T02:35:18;100688.31;;;12.74;100.00
72640;BME280;60683;51.730;8.762;2023-10-09T02:38:02;100695.94;;;12.77;100.00
72640;BME280;60683;51.730;8.762;2023-10-09T02:40:33;100689.03;;;12.93;100.00
72640;BME280;60683;51.730;8.762;2023-10-09T02:43:08;100677.50;;;13.09;100.00
72640;BME280;60683;51.730;8.762;2023-10-09T02:45:43;100673.63;;;13.17;100.00
72640;BME280;60683;51.730;8.762;2023-10-09T02:48:17;100664.34;;;13.13;100.00
72640;BME280;60683;51.730;8.762;2023-10-09T02:50:46;100671.16;;;13.15;100.00
72640;BME280;60683;51.730;8.762;2023-10-09T02:53:13;100667.19;;;13.18;100.00
72640;BME280;60683;51.730;8.762;2023-10-09T02:55:45;100662.59;;;13.18;100.00
72640;BME280;60683;51.730;8.762;2023-10-09T02:58:30;100671.16;;;13.15;100.00
72640;BME280;60683;51.730;8.762;2023-10-09T03:00:58;100646.66;;;13.17;100.00
72640;BME280;60683;51.730;8.762;2023-10-09T03:03:25;100653.56;;;13.24;100.00
72640;BME280;60683;51.730;8.762;2023-10-09T03:05:53;100650.38;;;13.28;100.00
72640;BME280;60683;51.730;8.762;2023-10-09T03:08:20;100664.34;;;13.36;100.00
72640;BME280;60683;51.730;8.762;2023-10-09T03:10:47;100668.41;;;13.50;100.00
72640;BME280;60683;51.730;8.762;2023-10-09T03:13:14;100658.75;;;13.54;100.00
72640;BME280;60683;51.730;8.762;2023-10-09T03:15:47;100677.84;;;13.65;100.00
72640;BME280;60683;51.730;8.762;2023-10-09T03:18:17;100670.22;;;13.62;100.00
72640;BME280;60683;51.730;8.762;2023-10-09T03:20:44;100661.88;;;13.63;100.00
72640;BME280;60683;51.730;8.762;2023-10-09T03:23:13;100652.13;;;13.62;100.00
72640;BME280;60683;51.730;8.762;2023-10-09T03:25:40;100651.56;;;13.60;100.00
72640;BME280;60683;51.730;8.762;2023-10-09T03:28:11;100643.59;;;13.53;100.00
72640;BME280;60683;51.730;8.762;2023-10-09T03:30:38;100647.69;;;13.56;100.00
72640;BME280;60683;51.730;8.762;2023-10-09T03:33:07;100648.94;;;13.48;100.00
72640;BME280;60683;51.730;8.762;2023-10-09T03:35:34;100636.38;;;13.42;100.00
72640;BME280;60683;51.730;8.762;2023-10-09T03:38:02;100630.03;;;13.48;100.00
72640;BME280;60683;51.730;8.762;2023-10-09T03:40:37;100624.53;;;13.43;100.00
72640;BME280;60683;51.730;8.762;2023-10-09T03:43:08;100617.47;;;13.42;100.00
72640;BME280;60683;51.730;8.762;2023-10-09T03:45:37;100611.59;;;13.45;100.00
72640;BME280;60683;51.730;8.762;2023-10-09T03:48:12;100605.47;;;13.50;100.00
72640;BME280;60683;51.730;8.762;2023-10-09T03:50:46;100607.84;;;13.46;100.00
72640;BME280;60683;51.730;8.762;2023-10-09T03:53:13;100603.25;;;13.47;100.00
72640;BME280;60683;51.730;8.762;2023-10-09T03:55:40;100609.94;;;13.44;100.00
72640;BME280;60683;51.730;8.762;2023-10-09T03:58:08;100595.38;;;13.45;100.00
72640;BME280;60683;51.730;8.762;2023-10-09T04:00:37;100594.91;;;13.48;100.00
72640;BME280;60683;51.730;8.762;2023-10-09T04:03:12;100588.81;;;13.41;100.00
72640;BME280;60683;51.730;8.762;2023-10-09T04:05:40;100591.44;;;13.36;100.00
72640;BME280;60683;51.730;8.762;2023-10-09T04:08:09;100587.53;;;13.44;100.00
72640;BME280;60683;51.730;8.762;2023-10-09T04:10:41;100592.34;;;13.42;100.00
72640;BME280;60683;51.730;8.762;2023-10-09T04:13:18;100596.09;;;13.41;100.00
72640;BME280;60683;51.730;8.762;2023-10-09T04:15:49;100594.91;;;13.48;100.00
72640;BME280;60683;51.730;8.762;2023-10-09T04:18:20;100595.63;;;13.44;100.00
72640;BME280;60683;51.730;8.762;2023-10-09T04:20:55;100582.22;;;13.49;100.00
72640;BME280;60683;51.730;8.762;2023-10-09T04:23:39;100579.66;;;13.42;100.00
72640;BME280;60683;51.730;8.762;2023-10-09T04:26:24;100576.72;;;13.44;100.00
72640;BME280;60683;51.730;8.762;2023-10-09T04:28:51;100572.53;;;13.36;100.00
72640;BME280;60683;51.730;8.762;2023-10-09T04:31:19;100575.13;;;13.31;100.00
72640;BME280;60683;51.730;8.762;2023-10-09T04:33:49;100571.13;;;13.34;100.00
72640;BME280;60683;51.730;8.762;2023-10-09T04:36:44;100568.47;;;13.50;100.00
72640;BME280;60683;51.730;8.762;2023-10-09T04:39:15;100553.50;;;13.59;100.00
72640;BME280;60683;51.730;8.762;2023-10-09T04:41:51;100556.31;;;13.81;100.00
72640;BME280;60683;51.730;8.762;2023-10-09T04:44:19;100557.47;;;14.02;100.00
72640;BME280;60683;51.730;8.762;2023-10-09T04:46:50;100559.25;;;14.13;100.00
72640;BME280;60683;51.730;8.762;2023-10-09T04:49:32;100563.94;;;14.18;100.00
72640;BME280;60683;51.730;8.762;2023-10-09T04:52:15;100562.94;;;14.24;100.00
72640;BME280;60683;51.730;8.762;2023-10-09T04:54:45;100564.66;;;14.30;100.00
72640;BME280;60683;51.730;8.762;2023-10-09T04:57:26;100560.16;;;14.36;100.00
72640;BME280;60683;51.730;8.762;2023-10-09T04:59:55;100565.50;;;14.47;100.00
72640;BME280;60683;51.730;8.762;2023-10-09T05:02:24;100562.56;;;14.49;100.00
72640;BME280;60683;51.730;8.762;2023-10-09T05:05:04;100555.31;;;14.54;100.00
72640;BME280;60683;51.730;8.762;2023-10-09T05:08:02;100554.56;;;14.59;100.00
72640;BME280;60683;51.730;8.762;2023-10-09T05:10:45;100555.94;;;14.62;100.00
72640;BME280;60683;51.730;8.762;2023-10-09T05:13:32;100558.22;;;14.70;100.00
72640;BME280;60683;51.730;8.762;2023-10-09T05:16:10;100556.81;;;14.67;100.00
72640;BME280;60683;51.730;8.762;2023-10-09T05:18:41;100555.69;;;14.63;100.00
72640;BME280;60683;51.730;8.762;2023-10-09T05:21:09;100559.53;;;14.67;100.00
72640;BME280;60683;51.730;8.762;2023-10-09T05:23:49;100575.91;;;14.77;100.00
72640;BME280;60683;51.730;8.762;2023-10-09T05:26:36;100575.00;;;14.88;98.64
72640;BME280;60683;51.730;8.762;2023-10-09T05:29:17;100578.00;;;14.92;97.77
72640;BME280;60683;51.730;8.762;2023-10-09T05:31:50;100590.50;;;14.76;99.64
72640;BME280;60683;51.730;8.762;2023-10-09T05:34:23;100597.56;;;14.77;99.58
72640;BME280;60683;51.730;8.762;2023-10-09T05:36:52;100611.66;;;14.79;99.70
72640;BME280;60683;51.730;8.762;2023-10-09T05:39:36;100619.16;;;14.72;100.00
72640;BME280;60683;51.730;8.762;2023-10-09T05:42:06;100618.81;;;14.69;100.00
72640;BME280;60683;51.730;8.762;2023-10-09T05:44:42;100620.38;;;14.65;100.00
72640;BME280;60683;51.730;8.762;2023-10-09T05:47:27;100622.38;;;14.52;100.00
72640;BME280;60683;51.730;8.762;2023-10-09T05:49:57;100619.94;;;14.51;100.00
72640;BME280;60683;51.730;8.762;2023-10-09T05:52:50;100617.16;;;14.46;100.00
72640;BME280;60683;51.730;8.762;2023-10-09T05:55:31;100613.66;;;14.34;100.00
72640;BME280;60683;51.730;8.762;2023-10-09T05:58:30;100627.94;;;14.29;100.00
72640;BME280;60683;51.730;8.762;2023-10-09T06:01:28;100640.53;;;14.23;100.00
72640;BME280;60683;51.730;8.762;2023-10-09T06:04:13;100648.56;;;14.18;100.00
72640;BME280;60683;51.730;8.762;2023-10-09T06:06:42;100648.22;;;14.15;100.00
72640;BME280;60683;51.730;8.762;2023-10-09T06:09:13;100648.47;;;14.13;100.00
72640;BME280;60683;51.730;8.762;2023-10-09T06:12:15;100655.44;;;14.09;100.00
72640;BME280;60683;51.730;8.762;2023-10-09T06:15:08;100654.84;;;14.07;100.00
72640;BME280;60683;51.730;8.762;2023-10-09T06:18:16;100664.69;;;14.13;100.00
72640;BME280;60683;51.730;8.762;2023-10-09T06:20:51;100661.91;;;14.08;100.00
72640;BME280;60683;51.730;8.762;2023-10-09T06:23:44;100658.13;;;14.09;100.00
72640;BME280;60683;51.730;8.762;2023-10-09T06:26:36;100661.66;;;14.10;100.00
72640;BME280;60683;51.730;8.762;2023-10-09T06:29:03;100664.22;;;14.16;100.00
72640;BME280;60683;51.730;8.762;2023-10-09T06:31:56;100660.34;;;14.12;100.00
72640;BME280;60683;51.730;8.762;2023-10-09T06:34:43;100654.47;;;14.15;100.00
72640;BME280;60683;51.730;8.762;2023-10-09T06:37:11;100666.75;;;14.23;100.00
72640;BME280;60683;51.730;8.762;2023-10-09T06:40:00;100663.56;;;14.26;100.00
72640;BME280;60683;51.730;8.762;2023-10-09T06:42:50;100664.00;;;14.35;100.00
72640;BME280;60683;51.730;8.762;2023-10-09T06:45:20;100664.19;;;14.45;100.00
72640;BME280;60683;51.730;8.762;2023-10-09T06:47:54;100658.94;;;14.55;100.00
72640;BME280;60683;51.730;8.762;2023-10-09T06:50:21;100669.59;;;14.62;100.00
72640;BME280;60683;51.730;8.762;2023-10-09T06:52:52;100661.63;;;14.72;100.00
72640;BME280;60683;51.730;8.762;2023-10-09T06:55:39;100657.59;;;14.74;100.00
72640;BME280;60683;51.730;8.762;2023-10-09T06:58:18;100669.56;;;14.78;100.00
72640;BME280;60683;51.730;8.762;2023-10-09T07:00:49;100673.50;;;14.87;100.00
72640;BME280;60683;51.730;8.762;2023-10-09T07:03:41;100690.41;;;14.95;100.00
72640;BME280;60683;51.730;8.762;2023-10-09T07:06:18;100674.66;;;14.92;100.00
72640;BME280;60683;51.730;8.762;2023-10-09T07:08:50;100692.59;;;14.98;100.00
72640;BME280;60683;51.730;8.762;2023-10-09T07:11:42;100689.66;;;14.99;100.00
72640;BME280;60683;51.730;8.762;2023-10-09T07:14:31;100688.91;;;15.04;100.00
72640;BME280;60683;51.730;8.762;2023-10-09T07:17:16;100687.84;;;15.05;100.00
72640;BME280;60683;51.730;8.762;2023-10-09T07:19:48;100688.91;;;15.04;100.00
72640;BME280;60683;51.730;8.762;2023-10-09T07:22:39;100683.50;;;15.04;100.00
72640;BME280;60683;51.730;8.762;2023-10-09T07:25:19;100695.44;;;15.08;100.00
72640;BME280;60683;51.730;8.762;2023-10-09T07:28:04;100687.63;;;15.11;100.00
72640;BME280;60683;51.730;8.762;2023-10-09T07:30:45;100702.81;;;15.12;100.00
72640;BME280;60683;51.730;8.762;2023-10-09T07:33:12;100691.97;;;15.12;100.00
72640;BME280;60683;51.730;8.762;2023-10-09T07:35:56;100686.56;;;15.12;100.00
72640;BME280;60683;51.730;8.762;2023-10-09T07:38:24;100674.66;;;15.13;100.00
72640;BME280;60683;51.730;8.762;2023-10-09T07:40:56;100676.13;;;15.21;100.00
72640;BME280;60683;51.730;8.762;2023-10-09T07:43:28;100663.72;;;15.25;100.00
72640;BME280;60683;51.730;8.762;2023-10-09T07:46:03;100654.53;;;15.26;100.00
72640;BME280;60683;51.730;8.762;2023-10-09T07:48:50;100647.78;;;15.29;100.00
72640;BME280;60683;51.730;8.762;2023-10-09T07:51:19;100655.72;;;15.35;100.00
72640;BME280;60683;51.730;8.762;2023-10-09T07:53:49;100676.91;;;15.38;100.00
72640;BME280;60683;51.730;8.762;2023-10-09T07:56:23;100681.00;;;15.41;100.00
72640;BME280;60683;51.730;8.762;2023-10-09T07:58:50;100674.00;;;15.45;100.00
72640;BME280;60683;51.730;8.762;2023-10-09T08:01:19;100681.88;;;15.46;100.00
72640;BME280;60683;51.730;8.762;2023-10-09T08:04:01;100688.50;;;15.55;100.00
72640;BME280;60683;51.730;8.762;2023-10-09T08:06:31;100699.03;;;15.52;100.00
72640;BME280;60683;51.730;8.762;2023-10-09T08:09:08;100705.75;;;15.49;100.00
72640;BME280;60683;51.730;8.762;2023-10-09T08:11:54;100695.50;;;15.51;100.00
72640;BME280;60683;51.730;8.762;2023-10-09T08:14:40;100677.66;;;15.55;100.00
72640;BME280;60683;51.730;8.762;2023-10-09T08:17:15;100669.09;;;15.64;100.00
72640;BME280;60683;51.730;8.762;2023-10-09T08:19:45;100653.94;;;15.68;100.00
72640;BME280;60683;51.730;8.762;2023-10-09T08:22:27;100664.53;;;15.69;99.31
72640;BME280;60683;51.730;8.762;2023-10-09T08:25:09;100671.91;;;15.74;99.53
72640;BME280;60683;51.730;8.762;2023-10-09T08:27:52;100675.50;;;15.79;98.81
72640;BME280;60683;51.730;8.762;2023-10-09T08:30:24;100669.06;;;15.85;97.91
72640;BME280;60683;51.730;8.762;2023-10-09T08:33:17;100656.31;;;15.86;97.78
72640;BME280;60683;51.730;8.762;2023-10-09T08:36:01;100659.59;;;15.88;97.17
72640;BME280;60683;51.730;8.762;2023-10-09T08:38:30;100672.66;;;15.91;97.33
72640;BME280;60683;51.730;8.762;2023-10-09T08:41:07;100678.59;;;15.88;97.14
72640;BME280;60683;51.730;8.762;2023-10-09T08:43:47;100680.28;;;15.94;97.44
72640;BME280;60683;51.730;8.762;2023-10-09T08:46:19;100674.03;;;15.94;97.94
72640;BME280;60683;51.730;8.762;2023-10-09T08:48:48;100679.72;;;15.92;98.45
72640;BME280;60683;51.730;8.762;2023-10-09T08:51:17;100686.25;;;15.96;97.47
72640;BME280;60683;51.730;8.762;2023-10-09T08:53:46;100685.75;;;15.99;97.87
72640;BME280;60683;51.730;8.762;2023-10-09T08:56:13;100674.91;;;15.99;97.82
72640;BME280;60683;51.730;8.762;2023-10-09T08:58:49;100676.22;;;15.97;98.27
72640;BME280;60683;51.730;8.762;2023-10-09T09:01:17;100674.59;;;15.96;98.13
72640;BME280;60683;51.730;8.762;2023-10-09T09:03:49;100677.06;;;15.97;98.71
72640;BME280;60683;51.730;8.762;2023-10-09T09:06:17;100685.44;;;15.96;98.86
72640;BME280;60683;51.730;8.762;2023-10-09T09:08:45;100680.28;;;15.94;99.82
72640;BME280;60683;51.730;8.762;2023-10-09T09:11:14;100680.53;;;15.93;99.12
72640;BME280;60683;51.730;8.762;2023-10-09T09:13:44;100678.63;;;15.93;98.78
72640;BME280;60683;51.730;8.762;2023-10-09T09:16:16;100694.13;;;15.98;99.41
72640;BME280;60683;51.730;8.762;2023-10-09T09:18:53;100688.22;;;16.01;99.53
72640;BME280;60683;51.730;8.762;2023-10-09T09:21:31;100677.09;;;16.02;99.96
72640;BME280;60683;51.730;8.762;2023-10-09T09:24:05;100686.69;;;16.10;99.22
72640;BME280;60683;51.730;8.762;2023-10-09T09:26:41;100680.72;;;16.13;98.10
72640;BME280;60683;51.730;8.762;2023-10-09T09:29:12;100683.22;;;16.19;98.76
72640;BME280;60683;51.730;8.762;2023-10-09T09:31:53;100678.63;;;16.20;98.40
72640;BME280;60683;51.730;8.762;2023-10-09T09:34:22;100682.44;;;16.24;99.01
72640;BME280;60683;51.730;8.762;2023-10-09T09:36:56;100676.72;;;16.20;98.32
72640;BME280;60683;51.730;8.762;2023-10-09T09:39:25;100658.91;;;16.30;98.50
72640;BME280;60683;51.730;8.762;2023-10-09T09:41:56;100645.06;;;16.31;97.61
72640;BME280;60683;51.730;8.762;2023-10-09T09:44:33;100638.09;;;16.40;97.87
72640;BME280;60683;51.730;8.762;2023-10-09T09:47:09;100633.78;;;16.44;97.44
72640;BME280;60683;51.730;8.762;2023-10-09T09:49:42;100635.44;;;16.45;96.33
72640;BME280;60683;51.730;8.762;2023-10-09T09:52:09;100628.44;;;16.54;96.02
72640;BME280;60683;51.730;8.762;2023-10-09T09:54:37;100628.78;;;16.63;95.24
72640;BME280;60683;51.730;8.762;2023-10-09T09:57:04;100621.81;;;16.77;94.17
72640;BME280;60683;51.730;8.762;2023-10-09T09:59:38;100619.97;;;16.88;93.89
72640;BME280;60683;51.730;8.762;2023-10-09T10:02:20;100627.81;;;16.79;93.21
72640;BME280;60683;51.730;8.762;2023-10-09T10:04:54;100618.91;;;16.89;93.84
72640;BME280;60683;51.730;8.762;2023-10-09T10:07:23;100620.34;;;17.02;93.72
72640;BME280;60683;51.730;8.762;2023-10-09T10:09:51;100622.78;;;17.03;94.23
72640;BME280;60683;51.730;8.762;2023-10-09T10:12:51;100625.00;;;17.11;93.22
72640;BME280;60683;51.730;8.762;2023-10-09T10:15:59;100612.75;;;17.09;91.27
72640;BME280;60683;51.730;8.762;2023-10-09T10:18:31;100611.38;;;17.01;92.21
72640;BME280;60683;51.730;8.762;2023-10-09T10:21:12;100600.78;;;17.00;92.28
72640;BME280;60683;51.730;8.762;2023-10-09T10:23:42;100595.38;;;17.10;91.27
72640;BME280;60683;51.730;8.762;2023-10-09T10:26:17;100592.13;;;17.13;90.90
72640;BME280;60683;51.730;8.762;2023-10-09T10:29:13;100597.06;;;17.26;91.69
72640;BME280;60683;51.730;8.762;2023-10-09T10:31:51;100594.09;;;17.33;91.23
72640;BME280;60683;51.730;8.762;2023-10-09T10:34:20;100610.13;;;17.34;90.66
72640;BME280;60683;51.730;8.762;2023-10-09T10:36:51;100595.44;;;17.30;90.50
72640;BME280;60683;51.730;8.762;2023-10-09T10:39:24;100597.63;;;17.33;90.76
72640;BME280;60683;51.730;8.762;2023-10-09T10:42:09;100599.53;;;17.33;91.00
72640;BME280;60683;51.730;8.762;2023-10-09T10:44:56;100583.56;;;17.51;91.06
72640;BME280;60683;51.730;8.762;2023-10-09T10:47:27;100591.72;;;17.51;90.36
72640;BME280;60683;51.730;8.762;2023-10-09T10:49:58;100595.00;;;17.59;89.85
72640;BME280;60683;51.730;8.762;2023-10-09T10:52:38;100603.94;;;17.54;91.22
72640;BME280;60683;51.730;8.762;2023-10-09T10:55:09;100608.84;;;17.57;91.61
72640;BME280;60683;51.730;8.762;2023-10-09T10:58:15;100624.88;;;17.53;91.38
72640;BME280;60683;51.730;8.762;2023-10-09T11:00:53;100615.84;;;17.33;92.09
72640;BME280;60683;51.730;8.762;2023-10-09T11:03:38;100616.38;;;17.30;93.39
72640;BME280;60683;51.730;8.762;2023-10-09T11:06:27;100617.72;;;17.32;94.25
72640;BME280;60683;51.730;8.762;2023-10-09T11:09:05;100616.03;;;17.16;93.71
72640;BME280;60683;51.730;8.762;2023-10-09T11:11:47;100620.38;;;17.12;93.74
72640;BME280;60683;51.730;8.762;2023-10-09T11:14:16;100612.78;;;17.14;94.46
72640;BME280;60683;51.730;8.762;2023-10-09T11:16:49;100617.13;;;17.20;95.00
72640;BME280;60683;51.730;8.762;2023-10-09T11:19:20;100611.16;;;17.13;95.14
72640;BME280;60683;51.730;8.762;2023-10-09T11:21:58;100619.03;;;17.19;95.71
72640;BME280;60683;51.730;8.762;2023-10-09T11:24:48;100628.81;;;17.15;96.63
72640;BME280;60683;51.730;8.762;2023-10-09T11:27:27;100636.16;;;17.15;96.51
72640;BME280;60683;51.730;8.762;2023-10-09T11:29:58;100643.19;;;17.11;96.51
72640;BME280;60683;51.730;8.762;2023-10-09T11:32:36;100668.09;;;16.98;97.56
72640;BME280;60683;51.730;8.762;2023-10-09T11:35:10;100680.34;;;17.00;96.47
72640;BME280;60683;51.730;8.762;2023-10-09T11:37:40;100672.13;;;16.90;96.94
72640;BME280;60683;51.730;8.762;2023-10-09T11:40:28;100684.66;;;16.96;96.57
72640;BME280;60683;51.730;8.762;2023-10-09T11:43:00;100690.91;;;16.97;97.24
72640;BME280;60683;51.730;8.762;2023-10-09T11:45:29;100679.00;;;17.03;94.99
72640;BME280;60683;51.730;8.762;2023-10-09T11:48:16;100670.34;;;17.06;95.52
72640;BME280;60683;51.730;8.762;2023-10-09T11:50:47;100665.19;;;17.09;94.81
72640;BME280;60683;51.730;8.762;2023-10-09T11:53:19;100669.28;;;17.17;94.87
72640;BME280;60683;51.730;8.762;2023-10-09T11:56:02;100668.75;;;17.15;94.12
72640;BME280;60683;51.730;8.762;2023-10-09T11:58:29;100665.50;;;17.13;93.97
72640;BME280;60683;51.730;8.762;2023-10-09T12:00:58;100669.88;;;17.24;94.63
72640;BME280;60683;51.730;8.762;2023-10-09T12:03:29;100667.69;;;17.26;93.22
72640;BME280;60683;51.730;8.762;2023-10-09T12:05:58;100665.50;;;17.23;93.33
72640;BME280;60683;51.730;8.762;2023-10-09T12:08:30;100662.50;;;17.19;93.00
72640;BME280;60683;51.730;8.762;2023-10-09T12:10:58;100667.66;;;17.16;93.21
72640;BME280;60683;51.730;8.762;2023-10-09T12:13:35;100662.78;;;17.13;93.14
72640;BME280;60683;51.730;8.762;2023-10-09T12:16:04;100655.19;;;17.15;93.63
72640;BME280;60683;51.730;8.762;2023-10-09T12:18:34;100646.72;;;17.16;93.07
72640;BME280;60683;51.730;8.762;2023-10-09T12:21:02;100644.84;;;17.22;93.33
72640;BME280;60683;51.730;8.762;2023-10-09T12:23:30;100665.00;;;17.31;92.86
72640;BME280;60683;51.730;8.762;2023-10-09T12:26:02;100661.19;;;17.27;93.22
72640;BME280;60683;51.730;8.762;2023-10-09T12:28:29;100652.75;;;17.24;93.20
72640;BME280;60683;51.730;8.762;2023-10-09T12:31:00;100650.88;;;17.29;93.71
72640;BME280;60683;51.730;8.762;2023-10-09T12:33:28;100652.97;;;17.17;93.43
72640;BME280;60683;51.730;8.762;2023-10-09T12:35:56;100647.56;;;17.17;94.01
72640;BME280;60683;51.730;8.762;2023-10-09T12:38:25;100645.94;;;17.21;93.79
72640;BME280;60683;51.730;8.762;2023-10-09T12:41:01;100643.81;;;17.28;94.73
72640;BME280;60683;51.730;8.762;2023-10-09T12:43:34;100632.94;;;17.28;95.20
72640;BME280;60683;51.730;8.762;2023-10-09T12:46:08;100632.94;;;17.28;95.92
72640;BME280;60683;51.730;8.762;2023-10-09T12:48:34;100629.41;;;17.28;95.37
72640;BME280;60683;51.730;8.762;2023-10-09T12:51:03;100636.16;;;17.20;95.33
72640;BME280;60683;51.730;8.762;2023-10-09T12:53:32;100633.69;;;17.08;96.38
72640;BME280;60683;51.730;8.762;2023-10-09T12:55:59;100646.66;;;16.96;96.21
72640;BME280;60683;51.730;8.762;2023-10-09T12:58:26;100639.81;;;16.88;97.17
72640;BME280;60683;51.730;8.762;2023-10-09T13:00:53;100638.16;;;16.87;98.21
72640;BME280;60683;51.730;8.762;2023-10-09T13:03:21;100635.13;;;16.79;97.91
72640;BME280;60683;51.730;8.762;2023-10-09T13:05:54;100644.09;;;16.79;98.25
72640;BME280;60683;51.730;8.762;2023-10-09T13:08:22;100638.63;;;16.74;98.29
72640;BME280;60683;51.730;8.762;2023-10-09T13:11:01;100644.88;;;16.75;99.09
72640;BME280;60683;51.730;8.762;2023-10-09T13:13:33;100641.03;;;16.71;98.46
72640;BME280;60683;51.730;8.762;2023-10-09T13:16:18;100637.50;;;16.70;99.92
72640;BME280;60683;51.730;8.762;2023-10-09T13:18:50;100638.63;;;16.74;98.32
72640;BME280;60683;51.730;8.762;2023-10-09T13:21:18;100634.28;;;16.73;97.88
72640;BME280;60683;51.730;8.762;2023-10-09T13:23:45;100632.94;;;16.76;97.70